KEWR

Newark Liberty International Airport

Newark, New Jersey, USA
METAR KEWR 100651Z 03003KT 10SM SCT250 M03/M09 A3012 RMK AO2 SLP197 T10281089 $
Observed Flight Rules
Dec-10 @ 06:51 UTC (31 minutes ago) Visual Flight Rules
Wind Visibility Clouds
30° at 3 knots 10 miles
  • Scattered at 25,000' AGL
Temperatures Readings
Current -3°C / 27°F
Dewpoint -9°C / 16°F
Humidity 64%
Altimeter 30.12" Hg
Pressure 1019.7 hPa
Elevation 7
METAR KEWR 100651Z 03003KT 10SM SCT250 M03/M09 A3012 RMK AO2 SLP197 T10281089 $
Observed Flight Rules
Dec-10 @ 06:51 UTC
(31 minutes ago)
VFR
Wind Visibility
30° at 3 knots 10 miles
Clouds
  • Scattered at 25,000' AGL
Temperature Dewpoint
-3°C / 27°F -9°C / 16°F
Humidity Altimeter Pressure
64% 30.12" Hg 1019.7 hPa